sensor_id;sensor_type;location;lat;lon;timestamp;P1;durP1;ratioP1;P2;durP2;ratioP2
19919;SDS011;10122;50.074;19.920;2022-08-05T00:02:02;7.90;;;5.10;;
19919;SDS011;10122;50.074;19.920;2022-08-05T00:04:28;7.57;;;5.20;;
19919;SDS011;10122;50.074;19.920;2022-08-05T00:06:53;6.75;;;4.95;;
19919;SDS011;10122;50.074;19.920;2022-08-05T00:09:19;7.68;;;5.78;;
19919;SDS011;10122;50.074;19.920;2022-08-05T00:11:45;7.82;;;5.57;;
19919;SDS011;10122;50.074;19.920;2022-08-05T00:14:11;7.03;;;5.47;;
19919;SDS011;10122;50.074;19.920;2022-08-05T00:16:37;7.95;;;5.50;;
19919;SDS011;10122;50.074;19.920;2022-08-05T00:19:03;8.10;;;5.43;;
19919;SDS011;10122;50.074;19.920;2022-08-05T00:21:29;6.78;;;5.55;;
19919;SDS011;10122;50.074;19.920;2022-08-05T00:23:54;8.05;;;5.20;;
19919;SDS011;10122;50.074;19.920;2022-08-05T00:26:20;9.55;;;5.35;;
19919;SDS011;10122;50.074;19.920;2022-08-05T00:28:46;10.07;;;5.90;;
19919;SDS011;10122;50.074;19.920;2022-08-05T00:31:12;9.68;;;5.50;;
19919;SDS011;10122;50.074;19.920;2022-08-05T00:33:38;9.73;;;5.60;;
19919;SDS011;10122;50.074;19.920;2022-08-05T00:36:04;9.90;;;5.88;;
19919;SDS011;10122;50.074;19.920;2022-08-05T00:38:30;8.82;;;5.50;;
19919;SDS011;10122;50.074;19.920;2022-08-05T00:40:56;6.90;;;5.80;;
19919;SDS011;10122;50.074;19.920;2022-08-05T00:43:26;8.25;;;5.88;;
19919;SDS011;10122;50.074;19.920;2022-08-05T00:45:53;8.07;;;5.47;;
19919;SDS011;10122;50.074;19.920;2022-08-05T00:48:20;7.00;;;5.50;;
19919;SDS011;10122;50.074;19.920;2022-08-05T00:50:47;7.25;;;5.30;;
19919;SDS011;10122;50.074;19.920;2022-08-05T00:53:15;7.38;;;5.82;;
19919;SDS011;10122;50.074;19.920;2022-08-05T00:55:42;6.22;;;5.43;;
19919;SDS011;10122;50.074;19.920;2022-08-05T00:58:12;9.68;;;5.90;;
19919;SDS011;10122;50.074;19.920;2022-08-05T01:00:41;9.75;;;5.57;;
19919;SDS011;10122;50.074;19.920;2022-08-05T01:03:07;7.00;;;5.20;;
19919;SDS011;10122;50.074;19.920;2022-08-05T01:05:34;8.90;;;5.40;;
19919;SDS011;10122;50.074;19.920;2022-08-05T01:08:01;7.70;;;5.57;;
19919;SDS011;10122;50.074;19.920;2022-08-05T01:10:34;8.43;;;5.65;;
19919;SDS011;10122;50.074;19.920;2022-08-05T01:13:05;8.32;;;5.43;;
19919;SDS011;10122;50.074;19.920;2022-08-05T01:15:46;6.85;;;5.60;;
19919;SDS011;10122;50.074;19.920;2022-08-05T01:18:19;8.75;;;5.60;;
19919;SDS011;10122;50.074;19.920;2022-08-05T01:26:20;9.27;;;5.80;;
19919;SDS011;10122;50.074;19.920;2022-08-05T01:29:04;7.15;;;5.68;;
19919;SDS011;10122;50.074;19.920;2022-08-05T01:31:41;8.45;;;5.50;;
19919;SDS011;10122;50.074;19.920;2022-08-05T01:34:12;7.70;;;5.60;;
19919;SDS011;10122;50.074;19.920;2022-08-05T01:36:43;9.20;;;5.75;;
19919;SDS011;10122;50.074;19.920;2022-08-05T01:39:13;8.75;;;6.07;;
19919;SDS011;10122;50.074;19.920;2022-08-05T01:41:41;7.00;;;5.65;;
19919;SDS011;10122;50.074;19.920;2022-08-05T01:44:09;10.23;;;5.82;;
19919;SDS011;10122;50.074;19.920;2022-08-05T01:46:37;8.10;;;5.78;;
19919;SDS011;10122;50.074;19.920;2022-08-05T01:49:03;7.72;;;5.72;;
19919;SDS011;10122;50.074;19.920;2022-08-05T01:51:30;8.00;;;5.72;;
19919;SDS011;10122;50.074;19.920;2022-08-05T01:53:59;10.10;;;6.30;;
19919;SDS011;10122;50.074;19.920;2022-08-05T01:56:29;7.28;;;5.85;;
19919;SDS011;10122;50.074;19.920;2022-08-05T01:58:59;8.63;;;6.10;;
19919;SDS011;10122;50.074;19.920;2022-08-05T02:01:28;8.80;;;6.50;;
19919;SDS011;10122;50.074;19.920;2022-08-05T02:03:56;7.45;;;5.80;;
19919;SDS011;10122;50.074;19.920;2022-08-05T02:06:24;7.13;;;5.93;;
19919;SDS011;10122;50.074;19.920;2022-08-05T02:08:50;9.75;;;6.15;;
19919;SDS011;10122;50.074;19.920;2022-08-05T02:11:16;7.88;;;5.65;;
19919;SDS011;10122;50.074;19.920;2022-08-05T02:13:48;8.13;;;5.70;;
19919;SDS011;10122;50.074;19.920;2022-08-05T02:16:29;7.10;;;5.80;;
19919;SDS011;10122;50.074;19.920;2022-08-05T02:19:05;9.20;;;5.78;;
19919;SDS011;10122;50.074;19.920;2022-08-05T02:21:47;6.90;;;5.35;;
19919;SDS011;10122;50.074;19.920;2022-08-05T02:24:18;6.93;;;5.57;;
19919;SDS011;10122;50.074;19.920;2022-08-05T02:26:51;8.30;;;5.70;;
19919;SDS011;10122;50.074;19.920;2022-08-05T02:29:21;11.35;;;5.85;;
19919;SDS011;10122;50.074;19.920;2022-08-05T02:31:49;9.05;;;5.80;;
19919;SDS011;10122;50.074;19.920;2022-08-05T02:34:18;9.38;;;5.70;;
19919;SDS011;10122;50.074;19.920;2022-08-05T02:36:49;8.38;;;6.25;;
19919;SDS011;10122;50.074;19.920;2022-08-05T02:39:18;8.73;;;6.28;;
19919;SDS011;10122;50.074;19.920;2022-08-05T02:41:46;7.60;;;5.72;;
19919;SDS011;10122;50.074;19.920;2022-08-05T02:44:12;8.38;;;5.97;;
19919;SDS011;10122;50.074;19.920;2022-08-05T02:46:39;7.15;;;5.50;;
19919;SDS011;10122;50.074;19.920;2022-08-05T02:49:06;7.97;;;5.90;;
19919;SDS011;10122;50.074;19.920;2022-08-05T02:51:35;8.57;;;6.00;;
19919;SDS011;10122;50.074;19.920;2022-08-05T02:54:03;6.43;;;5.72;;
19919;SDS011;10122;50.074;19.920;2022-08-05T02:56:31;8.63;;;6.43;;
19919;SDS011;10122;50.074;19.920;2022-08-05T02:58:58;7.78;;;5.97;;
19919;SDS011;10122;50.074;19.920;2022-08-05T03:01:25;9.75;;;5.75;;
19919;SDS011;10122;50.074;19.920;2022-08-05T03:03:53;8.20;;;6.25;;
19919;SDS011;10122;50.074;19.920;2022-08-05T03:06:22;10.02;;;6.28;;
19919;SDS011;10122;50.074;19.920;2022-08-05T03:08:49;9.20;;;5.95;;
19919;SDS011;10122;50.074;19.920;2022-08-05T03:11:19;7.45;;;6.00;;
19919;SDS011;10122;50.074;19.920;2022-08-05T03:13:48;7.95;;;6.20;;
19919;SDS011;10122;50.074;19.920;2022-08-05T03:16:14;8.10;;;6.10;;
19919;SDS011;10122;50.074;19.920;2022-08-05T03:18:40;8.52;;;6.32;;
19919;SDS011;10122;50.074;19.920;2022-08-05T03:21:06;11.32;;;6.00;;
19919;SDS011;10122;50.074;19.920;2022-08-05T03:23:33;7.28;;;5.93;;
19919;SDS011;10122;50.074;19.920;2022-08-05T03:26:00;7.50;;;6.05;;
19919;SDS011;10122;50.074;19.920;2022-08-05T03:28:26;8.90;;;5.68;;
19919;SDS011;10122;50.074;19.920;2022-08-05T03:30:53;8.60;;;5.93;;
19919;SDS011;10122;50.074;19.920;2022-08-05T03:33:20;9.73;;;6.30;;
19919;SDS011;10122;50.074;19.920;2022-08-05T03:35:46;8.27;;;6.40;;
19919;SDS011;10122;50.074;19.920;2022-08-05T03:38:13;9.10;;;6.40;;
19919;SDS011;10122;50.074;19.920;2022-08-05T03:40:39;7.97;;;6.30;;
19919;SDS011;10122;50.074;19.920;2022-08-05T03:43:09;7.72;;;6.32;;
19919;SDS011;10122;50.074;19.920;2022-08-05T03:45:35;10.43;;;6.13;;
19919;SDS011;10122;50.074;19.920;2022-08-05T03:48:01;9.77;;;6.25;;
19919;SDS011;10122;50.074;19.920;2022-08-05T03:50:27;9.30;;;6.30;;
19919;SDS011;10122;50.074;19.920;2022-08-05T03:53:20;9.88;;;6.18;;
19919;SDS011;10122;50.074;19.920;2022-08-05T03:55:56;8.90;;;6.75;;
19919;SDS011;10122;50.074;19.920;2022-08-05T03:58:45;7.75;;;6.38;;
19919;SDS011;10122;50.074;19.920;2022-08-05T04:01:12;7.88;;;6.70;;
19919;SDS011;10122;50.074;19.920;2022-08-05T04:03:41;10.95;;;6.63;;
19919;SDS011;10122;50.074;19.920;2022-08-05T04:06:11;13.38;;;7.15;;
19919;SDS011;10122;50.074;19.920;2022-08-05T04:08:37;11.27;;;6.45;;
19919;SDS011;10122;50.074;19.920;2022-08-05T04:11:03;7.65;;;6.70;;
19919;SDS011;10122;50.074;19.920;2022-08-05T04:13:31;8.95;;;6.60;;
19919;SDS011;10122;50.074;19.920;2022-08-05T04:15:57;9.43;;;6.95;;
19919;SDS011;10122;50.074;19.920;2022-08-05T04:18:23;7.93;;;6.47;;
19919;SDS011;10122;50.074;19.920;2022-08-05T04:20:55;8.13;;;6.45;;
19919;SDS011;10122;50.074;19.920;2022-08-05T04:23:22;11.10;;;7.03;;
19919;SDS011;10122;50.074;19.920;2022-08-05T04:25:49;10.23;;;6.50;;
19919;SDS011;10122;50.074;19.920;2022-08-05T04:28:15;9.65;;;6.93;;
19919;SDS011;10122;50.074;19.920;2022-08-05T04:30:42;9.27;;;6.55;;
19919;SDS011;10122;50.074;19.920;2022-08-05T04:33:08;9.63;;;7.25;;
19919;SDS011;10122;50.074;19.920;2022-08-05T04:35:33;10.45;;;7.13;;
19919;SDS011;10122;50.074;19.920;2022-08-05T04:37:59;10.32;;;6.88;;
19919;SDS011;10122;50.074;19.920;2022-08-05T04:40:25;11.70;;;7.10;;
19919;SDS011;10122;50.074;19.920;2022-08-05T04:42:50;10.55;;;7.05;;
19919;SDS011;10122;50.074;19.920;2022-08-05T04:45:16;11.23;;;6.80;;
19919;SDS011;10122;50.074;19.920;2022-08-05T04:47:42;11.93;;;6.93;;
19919;SDS011;10122;50.074;19.920;2022-08-05T04:50:07;9.00;;;6.57;;
19919;SDS011;10122;50.074;19.920;2022-08-05T04:52:33;9.40;;;7.03;;
19919;SDS011;10122;50.074;19.920;2022-08-05T04:54:59;10.55;;;7.30;;
19919;SDS011;10122;50.074;19.920;2022-08-05T04:57:25;11.20;;;7.63;;
19919;SDS011;10122;50.074;19.920;2022-08-05T04:59:50;10.40;;;7.65;;
19919;SDS011;10122;50.074;19.920;2022-08-05T05:02:16;14.73;;;8.10;;
19919;SDS011;10122;50.074;19.920;2022-08-05T05:04:42;9.13;;;6.80;;
19919;SDS011;10122;50.074;19.920;2022-08-05T05:07:07;10.52;;;8.05;;
19919;SDS011;10122;50.074;19.920;2022-08-05T05:09:33;15.05;;;8.00;;
19919;SDS011;10122;50.074;19.920;2022-08-05T05:11:59;11.07;;;7.65;;
19919;SDS011;10122;50.074;19.920;2022-08-05T05:14:25;11.98;;;8.02;;
19919;SDS011;10122;50.074;19.920;2022-08-05T05:16:51;13.73;;;7.82;;
19919;SDS011;10122;50.074;19.920;2022-08-05T05:19:17;12.00;;;8.10;;
19919;SDS011;10122;50.074;19.920;2022-08-05T05:21:42;12.60;;;8.10;;
19919;SDS011;10122;50.074;19.920;2022-08-05T05:24:08;9.30;;;7.82;;
19919;SDS011;10122;50.074;19.920;2022-08-05T05:26:34;10.30;;;7.85;;
19919;SDS011;10122;50.074;19.920;2022-08-05T05:29:00;14.98;;;8.73;;
19919;SDS011;10122;50.074;19.920;2022-08-05T05:31:26;12.00;;;8.70;;
19919;SDS011;10122;50.074;19.920;2022-08-05T05:33:51;12.02;;;9.05;;
19919;SDS011;10122;50.074;19.920;2022-08-05T05:36:17;13.85;;;9.10;;
19919;SDS011;10122;50.074;19.920;2022-08-05T05:38:42;13.13;;;8.35;;
19919;SDS011;10122;50.074;19.920;2022-08-05T05:41:08;13.40;;;9.00;;
19919;SDS011;10122;50.074;19.920;2022-08-05T05:43:34;10.27;;;7.90;;
19919;SDS011;10122;50.074;19.920;2022-08-05T05:45:59;10.82;;;8.13;;
19919;SDS011;10122;50.074;19.920;2022-08-05T05:48:25;14.13;;;8.07;;
19919;SDS011;10122;50.074;19.920;2022-08-05T05:50:51;12.05;;;7.72;;
19919;SDS011;10122;50.074;19.920;2022-08-05T05:53:16;12.80;;;8.35;;
19919;SDS011;10122;50.074;19.920;2022-08-05T05:55:42;12.73;;;7.85;;
19919;SDS011;10122;50.074;19.920;2022-08-05T05:58:08;11.65;;;7.70;;
19919;SDS011;10122;50.074;19.920;2022-08-05T06:00:33;12.15;;;8.15;;
19919;SDS011;10122;50.074;19.920;2022-08-05T06:02:59;13.95;;;7.97;;
19919;SDS011;10122;50.074;19.920;2022-08-05T06:05:26;13.00;;;7.55;;
19919;SDS011;10122;50.074;19.920;2022-08-05T06:07:52;12.30;;;7.88;;
19919;SDS011;10122;50.074;19.920;2022-08-05T06:10:17;13.10;;;8.27;;
19919;SDS011;10122;50.074;19.920;2022-08-05T06:12:43;12.10;;;7.95;;
19919;SDS011;10122;50.074;19.920;2022-08-05T06:15:09;12.23;;;8.82;;
19919;SDS011;10122;50.074;19.920;2022-08-05T06:17:35;12.75;;;8.13;;
19919;SDS011;10122;50.074;19.920;2022-08-05T06:20:01;17.45;;;8.65;;
19919;SDS011;10122;50.074;19.920;2022-08-05T06:22:29;12.07;;;8.57;;
19919;SDS011;10122;50.074;19.920;2022-08-05T06:24:56;12.30;;;8.50;;
19919;SDS011;10122;50.074;19.920;2022-08-05T06:27:22;15.90;;;7.75;;
19919;SDS011;10122;50.074;19.920;2022-08-05T06:29:48;16.83;;;7.82;;
19919;SDS011;10122;50.074;19.920;2022-08-05T06:32:14;14.70;;;7.28;;
19919;SDS011;10122;50.074;19.920;2022-08-05T06:34:39;13.48;;;6.80;;
19919;SDS011;10122;50.074;19.920;2022-08-05T06:37:05;12.40;;;7.85;;
19919;SDS011;10122;50.074;19.920;2022-08-05T06:39:31;15.20;;;8.63;;
19919;SDS011;10122;50.074;19.920;2022-08-05T06:41:57;11.25;;;7.43;;
19919;SDS011;10122;50.074;19.920;2022-08-05T06:44:25;14.43;;;7.82;;
19919;SDS011;10122;50.074;19.920;2022-08-05T06:46:51;16.10;;;8.20;;
19919;SDS011;10122;50.074;19.920;2022-08-05T06:49:17;11.85;;;7.75;;
19919;SDS011;10122;50.074;19.920;2022-08-05T06:51:43;13.65;;;8.50;;
19919;SDS011;10122;50.074;19.920;2022-08-05T06:54:09;15.98;;;8.43;;
19919;SDS011;10122;50.074;19.920;2022-08-05T06:56:34;14.32;;;8.40;;
19919;SDS011;10122;50.074;19.920;2022-08-05T06:59:00;16.33;;;9.05;;
19919;SDS011;10122;50.074;19.920;2022-08-05T07:01:30;14.82;;;9.27;;
19919;SDS011;10122;50.074;19.920;2022-08-05T07:03:56;16.08;;;9.00;;
19919;SDS011;10122;50.074;19.920;2022-08-05T07:06:21;13.25;;;8.05;;
19919;SDS011;10122;50.074;19.920;2022-08-05T07:08:47;12.95;;;8.30;;
19919;SDS011;10122;50.074;19.920;2022-08-05T07:11:13;11.93;;;8.82;;
19919;SDS011;10122;50.074;19.920;2022-08-05T07:13:40;16.48;;;8.40;;
19919;SDS011;10122;50.074;19.920;2022-08-05T07:16:24;15.02;;;9.10;;
19919;SDS011;10122;50.074;19.920;2022-08-05T07:19:09;15.90;;;9.00;;
19919;SDS011;10122;50.074;19.920;2022-08-05T07:21:35;14.68;;;8.73;;
19919;SDS011;10122;50.074;19.920;2022-08-05T07:24:00;15.20;;;8.93;;
19919;SDS011;10122;50.074;19.920;2022-08-05T07:26:26;16.83;;;9.15;;
19919;SDS011;10122;50.074;19.920;2022-08-05T07:28:52;18.35;;;10.55;;
19919;SDS011;10122;50.074;19.920;2022-08-05T07:31:18;16.27;;;10.02;;
19919;SDS011;10122;50.074;19.920;2022-08-05T07:33:43;17.08;;;9.98;;
19919;SDS011;10122;50.074;19.920;2022-08-05T07:36:09;16.73;;;10.30;;
19919;SDS011;10122;50.074;19.920;2022-08-05T07:38:35;18.95;;;9.70;;
19919;SDS011;10122;50.074;19.920;2022-08-05T07:41:02;16.13;;;9.25;;
19919;SDS011;10122;50.074;19.920;2022-08-05T07:43:29;14.00;;;9.55;;
19919;SDS011;10122;50.074;19.920;2022-08-05T07:45:55;13.63;;;8.63;;
19919;SDS011;10122;50.074;19.920;2022-08-05T07:48:20;12.63;;;8.63;;
19919;SDS011;10122;50.074;19.920;2022-08-05T07:50:46;16.98;;;8.85;;
19919;SDS011;10122;50.074;19.920;2022-08-05T07:53:11;16.95;;;9.45;;
19919;SDS011;10122;50.074;19.920;2022-08-05T07:55:37;14.13;;;8.80;;
19919;SDS011;10122;50.074;19.920;2022-08-05T07:58:03;16.98;;;8.38;;
19919;SDS011;10122;50.074;19.920;2022-08-05T08:00:34;11.95;;;7.78;;
19919;SDS011;10122;50.074;19.920;2022-08-05T08:03:00;14.77;;;8.18;;
19919;SDS011;10122;50.074;19.920;2022-08-05T08:05:26;11.07;;;7.32;;
19919;SDS011;10122;50.074;19.920;2022-08-05T08:07:52;13.05;;;7.40;;
19919;SDS011;10122;50.074;19.920;2022-08-05T08:10:20;9.57;;;7.10;;
19919;SDS011;10122;50.074;19.920;2022-08-05T08:12:46;11.48;;;7.10;;
19919;SDS011;10122;50.074;19.920;2022-08-05T08:15:12;9.80;;;6.90;;
19919;SDS011;10122;50.074;19.920;2022-08-05T08:17:38;9.75;;;6.63;;
19919;SDS011;10122;50.074;19.920;2022-08-05T08:20:04;9.02;;;6.28;;
19919;SDS011;10122;50.074;19.920;2022-08-05T08:22:30;9.00;;;6.43;;
19919;SDS011;10122;50.074;19.920;2022-08-05T08:24:56;8.63;;;6.50;;
19919;SDS011;10122;50.074;19.920;2022-08-05T08:27:22;12.25;;;7.00;;
19919;SDS011;10122;50.074;19.920;2022-08-05T08:29:48;8.38;;;6.50;;
19919;SDS011;10122;50.074;19.920;2022-08-05T08:32:13;7.18;;;6.00;;
19919;SDS011;10122;50.074;19.920;2022-08-05T08:34:40;9.80;;;6.22;;
19919;SDS011;10122;50.074;19.920;2022-08-05T08:37:06;8.90;;;6.13;;
19919;SDS011;10122;50.074;19.920;2022-08-05T08:39:32;8.27;;;6.18;;
19919;SDS011;10122;50.074;19.920;2022-08-05T08:41:58;8.30;;;5.90;;
19919;SDS011;10122;50.074;19.920;2022-08-05T08:44:27;8.65;;;6.20;;
19919;SDS011;10122;50.074;19.920;2022-08-05T08:46:54;10.77;;;6.32;;
19919;SDS011;10122;50.074;19.920;2022-08-05T08:49:21;8.10;;;6.15;;
19919;SDS011;10122;50.074;19.920;2022-08-05T08:51:58;8.35;;;6.53;;
19919;SDS011;10122;50.074;19.920;2022-08-05T08:54:29;7.97;;;6.38;;
19919;SDS011;10122;50.074;19.920;2022-08-05T08:56:56;9.10;;;6.05;;
19919;SDS011;10122;50.074;19.920;2022-08-05T08:59:22;7.97;;;6.30;;
19919;SDS011;10122;50.074;19.920;2022-08-05T09:01:49;8.55;;;6.03;;
19919;SDS011;10122;50.074;19.920;2022-08-05T09:04:15;12.30;;;6.25;;
19919;SDS011;10122;50.074;19.920;2022-08-05T09:06:42;9.80;;;6.43;;
19919;SDS011;10122;50.074;19.920;2022-08-05T09:09:07;6.82;;;6.10;;
19919;SDS011;10122;50.074;19.920;2022-08-05T09:11:33;8.30;;;5.95;;
19919;SDS011;10122;50.074;19.920;2022-08-05T09:14:00;9.32;;;6.28;;
19919;SDS011;10122;50.074;19.920;2022-08-05T09:16:26;8.10;;;5.93;;
19919;SDS011;10122;50.074;19.920;2022-08-05T09:18:52;7.85;;;6.05;;
19919;SDS011;10122;50.074;19.920;2022-08-05T09:21:18;7.57;;;6.20;;
19919;SDS011;10122;50.074;19.920;2022-08-05T09:23:46;6.72;;;5.90;;
19919;SDS011;10122;50.074;19.920;2022-08-05T09:26:25;6.85;;;6.13;;
19919;SDS011;10122;50.074;19.920;2022-08-05T09:28:51;6.65;;;6.00;;
19919;SDS011;10122;50.074;19.920;2022-08-05T09:31:22;6.57;;;5.97;;
19919;SDS011;10122;50.074;19.920;2022-08-05T09:33:49;7.32;;;6.15;;
19919;SDS011;10122;50.074;19.920;2022-08-05T09:36:16;7.45;;;6.28;;
19919;SDS011;10122;50.074;19.920;2022-08-05T09:38:58;7.88;;;6.18;;
19919;SDS011;10122;50.074;19.920;2022-08-05T09:41:24;7.70;;;6.07;;
19919;SDS011;10122;50.074;19.920;2022-08-05T09:43:50;7.15;;;6.45;;
19919;SDS011;10122;50.074;19.920;2022-08-05T09:46:26;6.90;;;6.30;;
19919;SDS011;10122;50.074;19.920;2022-08-05T09:48:54;8.82;;;6.50;;
19919;SDS011;10122;50.074;19.920;2022-08-05T09:51:33;8.38;;;6.28;;
19919;SDS011;10122;50.074;19.920;2022-08-05T09:54:02;6.63;;;5.93;;
19919;SDS011;10122;50.074;19.920;2022-08-05T09:56:33;7.50;;;6.13;;
19919;SDS011;10122;50.074;19.920;2022-08-05T09:59:08;6.85;;;6.10;;
19919;SDS011;10122;50.074;19.920;2022-08-05T10:01:37;8.45;;;6.45;;
19919;SDS011;10122;50.074;19.920;2022-08-05T10:04:10;8.60;;;6.40;;
19919;SDS011;10122;50.074;19.920;2022-08-05T10:06:41;7.40;;;6.15;;
19919;SDS011;10122;50.074;19.920;2022-08-05T10:09:17;6.72;;;6.07;;
19919;SDS011;10122;50.074;19.920;2022-08-05T10:11:47;6.75;;;6.00;;
19919;SDS011;10122;50.074;19.920;2022-08-05T10:17:12;8.13;;;6.80;;
19919;SDS011;10122;50.074;19.920;2022-08-05T10:19:38;8.02;;;6.45;;
19919;SDS011;10122;50.074;19.920;2022-08-05T10:22:05;8.18;;;6.93;;
19919;SDS011;10122;50.074;19.920;2022-08-05T10:24:32;7.90;;;6.50;;
19919;SDS011;10122;50.074;19.920;2022-08-05T10:26:57;8.82;;;6.45;;
19919;SDS011;10122;50.074;19.920;2022-08-05T10:29:24;7.65;;;6.40;;
19919;SDS011;10122;50.074;19.920;2022-08-05T10:31:51;8.98;;;6.10;;
19919;SDS011;10122;50.074;19.920;2022-08-05T10:34:17;7.03;;;6.30;;
19919;SDS011;10122;50.074;19.920;2022-08-05T10:36:44;6.78;;;6.13;;
19919;SDS011;10122;50.074;19.920;2022-08-05T10:39:15;8.60;;;6.47;;
19919;SDS011;10122;50.074;19.920;2022-08-05T10:41:50;7.35;;;6.57;;
19919;SDS011;10122;50.074;19.920;2022-08-05T10:44:22;7.10;;;6.40;;
19919;SDS011;10122;50.074;19.920;2022-08-05T10:46:53;8.45;;;7.00;;
19919;SDS011;10122;50.074;19.920;2022-08-05T10:49:21;8.30;;;6.70;;
19919;SDS011;10122;50.074;19.920;2022-08-05T10:51:49;9.10;;;6.43;;
19919;SDS011;10122;50.074;19.920;2022-08-05T10:54:21;7.97;;;6.68;;
19919;SDS011;10122;50.074;19.920;2022-08-05T10:56:49;9.65;;;6.82;;
19919;SDS011;10122;50.074;19.920;2022-08-05T10:59:23;7.18;;;6.40;;
19919;SDS011;10122;50.074;19.920;2022-08-05T11:02:04;7.60;;;6.82;;
19919;SDS011;10122;50.074;19.920;2022-08-05T11:04:41;8.02;;;6.80;;
19919;SDS011;10122;50.074;19.920;2022-08-05T11:07:12;9.32;;;6.65;;
19919;SDS011;10122;50.074;19.920;2022-08-05T11:09:49;7.80;;;6.15;;
19919;SDS011;10122;50.074;19.920;2022-08-05T11:15:08;8.15;;;6.88;;
19919;SDS011;10122;50.074;19.920;2022-08-05T11:17:43;8.23;;;7.07;;
19919;SDS011;10122;50.074;19.920;2022-08-05T11:22:58;8.10;;;6.00;;
19919;SDS011;10122;50.074;19.920;2022-08-05T11:25:33;7.63;;;5.90;;
19919;SDS011;10122;50.074;19.920;2022-08-05T11:36:04;8.32;;;6.80;;
19919;SDS011;10122;50.074;19.920;2022-08-05T11:43:43;6.03;;;5.50;;
19919;SDS011;10122;50.074;19.920;2022-08-05T11:46:17;5.55;;;5.07;;
19919;SDS011;10122;50.074;19.920;2022-08-05T11:48:48;6.10;;;5.60;;
19919;SDS011;10122;50.074;19.920;2022-08-05T11:51:14;5.97;;;5.20;;
19919;SDS011;10122;50.074;19.920;2022-08-05T11:53:41;5.53;;;5.03;;
19919;SDS011;10122;50.074;19.920;2022-08-05T11:56:07;5.95;;;4.95;;
19919;SDS011;10122;50.074;19.920;2022-08-05T11:58:34;5.22;;;4.82;;
19919;SDS011;10122;50.074;19.920;2022-08-05T12:01:03;5.55;;;5.05;;
19919;SDS011;10122;50.074;19.920;2022-08-05T12:03:41;5.57;;;5.07;;
19919;SDS011;10122;50.074;19.920;2022-08-05T12:06:17;5.35;;;4.85;;
19919;SDS011;10122;50.074;19.920;2022-08-05T12:08:51;6.50;;;5.00;;
19919;SDS011;10122;50.074;19.920;2022-08-05T12:11:21;5.30;;;4.80;;
19919;SDS011;10122;50.074;19.920;2022-08-05T12:14:07;5.25;;;4.75;;
19919;SDS011;10122;50.074;19.920;2022-08-05T12:19:00;5.72;;;4.80;;
19919;SDS011;10122;50.074;19.920;2022-08-05T12:21:28;7.70;;;6.78;;
19919;SDS011;10122;50.074;19.920;2022-08-05T12:26:24;7.82;;;6.50;;
19919;SDS011;10122;50.074;19.920;2022-08-05T12:28:58;6.22;;;5.57;;
19919;SDS011;10122;50.074;19.920;2022-08-05T12:31:24;7.82;;;5.72;;
19919;SDS011;10122;50.074;19.920;2022-08-05T12:33:49;16.08;;;12.07;;
19919;SDS011;10122;50.074;19.920;2022-08-05T12:36:15;8.73;;;7.57;;
19919;SDS011;10122;50.074;19.920;2022-08-05T12:38:42;13.63;;;10.00;;
19919;SDS011;10122;50.074;19.920;2022-08-05T12:41:08;9.07;;;8.05;;
19919;SDS011;10122;50.074;19.920;2022-08-05T12:43:52;10.27;;;8.68;;
19919;SDS011;10122;50.074;19.920;2022-08-05T12:46:21;25.52;;;18.50;;
19919;SDS011;10122;50.074;19.920;2022-08-05T12:48:56;14.52;;;11.18;;
19919;SDS011;10122;50.074;19.920;2022-08-05T12:51:27;8.18;;;6.97;;
19919;SDS011;10122;50.074;19.920;2022-08-05T12:54:02;8.10;;;7.30;;
19919;SDS011;10122;50.074;19.920;2022-08-05T12:56:29;18.33;;;14.40;;
19919;SDS011;10122;50.074;19.920;2022-08-05T13:04:32;13.73;;;10.15;;
19919;SDS011;10122;50.074;19.920;2022-08-05T13:07:01;14.38;;;10.73;;
19919;SDS011;10122;50.074;19.920;2022-08-05T13:09:31;10.93;;;8.10;;
19919;SDS011;10122;50.074;19.920;2022-08-05T13:14:33;15.48;;;12.98;;
19919;SDS011;10122;50.074;19.920;2022-08-05T13:17:08;7.30;;;6.60;;
19919;SDS011;10122;50.074;19.920;2022-08-05T13:22:33;6.57;;;5.95;;
19919;SDS011;10122;50.074;19.920;2022-08-05T13:25:01;13.80;;;10.45;;
19919;SDS011;10122;50.074;19.920;2022-08-05T13:30:01;5.60;;;5.10;;
19919;SDS011;10122;50.074;19.920;2022-08-05T13:32:28;7.00;;;5.18;;
19919;SDS011;10122;50.074;19.920;2022-08-05T13:34:53;6.10;;;5.50;;
19919;SDS011;10122;50.074;19.920;2022-08-05T13:37:20;10.70;;;9.00;;
19919;SDS011;10122;50.074;19.920;2022-08-05T13:39:46;16.17;;;11.82;;
19919;SDS011;10122;50.074;19.920;2022-08-05T13:42:13;6.43;;;5.70;;
19919;SDS011;10122;50.074;19.920;2022-08-05T13:44:40;12.50;;;10.32;;
19919;SDS011;10122;50.074;19.920;2022-08-05T13:47:06;11.10;;;7.93;;
19919;SDS011;10122;50.074;19.920;2022-08-05T13:49:32;12.25;;;9.10;;
19919;SDS011;10122;50.074;19.920;2022-08-05T13:52:08;6.35;;;5.75;;
19919;SDS011;10122;50.074;19.920;2022-08-05T13:54:41;7.72;;;5.03;;
19919;SDS011;10122;50.074;19.920;2022-08-05T13:57:07;5.57;;;5.07;;
19919;SDS011;10122;50.074;19.920;2022-08-05T13:59:34;6.68;;;5.97;;
19919;SDS011;10122;50.074;19.920;2022-08-05T14:02:02;6.07;;;5.47;;
19919;SDS011;10122;50.074;19.920;2022-08-05T14:04:29;6.20;;;5.65;;
19919;SDS011;10122;50.074;19.920;2022-08-05T14:07:15;6.65;;;6.05;;
19919;SDS011;10122;50.074;19.920;2022-08-05T14:09:41;6.32;;;5.07;;
19919;SDS011;10122;50.074;19.920;2022-08-05T14:12:07;6.40;;;5.30;;
19919;SDS011;10122;50.074;19.920;2022-08-05T14:14:33;6.80;;;6.10;;
19919;SDS011;10122;50.074;19.920;2022-08-05T14:16:58;5.90;;;5.20;;
19919;SDS011;10122;50.074;19.920;2022-08-05T14:19:24;5.50;;;5.00;;
19919;SDS011;10122;50.074;19.920;2022-08-05T14:21:50;7.97;;;6.70;;
19919;SDS011;10122;50.074;19.920;2022-08-05T14:24:15;6.18;;;5.43;;
19919;SDS011;10122;50.074;19.920;2022-08-05T14:26:41;7.25;;;6.38;;
19919;SDS011;10122;50.074;19.920;2022-08-05T14:29:07;7.63;;;6.18;;
19919;SDS011;10122;50.074;19.920;2022-08-05T14:31:32;5.70;;;5.10;;
19919;SDS011;10122;50.074;19.920;2022-08-05T14:33:58;6.35;;;5.72;;
19919;SDS011;10122;50.074;19.920;2022-08-05T14:36:24;6.03;;;5.47;;
19919;SDS011;10122;50.074;19.920;2022-08-05T14:38:49;6.13;;;5.40;;
19919;SDS011;10122;50.074;19.920;2022-08-05T14:41:15;5.50;;;4.93;;
19919;SDS011;10122;50.074;19.920;2022-08-05T14:43:41;5.97;;;5.18;;
19919;SDS011;10122;50.074;19.920;2022-08-05T14:46:07;5.93;;;5.40;;
19919;SDS011;10122;50.074;19.920;2022-08-05T14:48:33;6.18;;;5.57;;
19919;SDS011;10122;50.074;19.920;2022-08-05T14:50:58;6.10;;;5.50;;
19919;SDS011;10122;50.074;19.920;2022-08-05T14:53:24;6.72;;;6.03;;
19919;SDS011;10122;50.074;19.920;2022-08-05T14:55:49;5.95;;;5.43;;
19919;SDS011;10122;50.074;19.920;2022-08-05T14:58:15;6.72;;;6.03;;
19919;SDS011;10122;50.074;19.920;2022-08-05T15:00:41;6.00;;;5.40;;
19919;SDS011;10122;50.074;19.920;2022-08-05T15:03:06;5.90;;;5.40;;
19919;SDS011;10122;50.074;19.920;2022-08-05T15:05:32;5.70;;;5.20;;
19919;SDS011;10122;50.074;19.920;2022-08-05T15:07:59;5.68;;;5.18;;
19919;SDS011;10122;50.074;19.920;2022-08-05T15:10:25;5.53;;;5.03;;
19919;SDS011;10122;50.074;19.920;2022-08-05T15:12:51;6.63;;;5.10;;
19919;SDS011;10122;50.074;19.920;2022-08-05T15:15:17;6.65;;;4.90;;
19919;SDS011;10122;50.074;19.920;2022-08-05T15:17:42;5.65;;;5.10;;
19919;SDS011;10122;50.074;19.920;2022-08-05T15:20:08;6.15;;;5.28;;
19919;SDS011;10122;50.074;19.920;2022-08-05T15:22:35;6.93;;;5.22;;